Sao Jeronimo, Brazil
Current Conditions -  °F | °C
As of 8:00 PM on Friday 19 Dec 2014 (Local Time) from SBPA Reporting Station
Clear Clear  
Wind Chill: 81°   Ceiling: Unl
Heat Index: 83°   Visibility: 6mi
Dew Point: 66°   Wind: 13mph
Humidity: 61%   Direction: 130°SE
Pressure: 29.71"   Gusts: NA
Location:  29.96°S, 51.72°W
Report Text: SBPA 192200Z 13011KT CAVOK 27/19 Q1006
Loading
Personal Weather Stations






























Interactive Weather Map New forecast layout! Learn more

10-Day Weather Forecast

Advertisements
Track Severe Weather on mobile